Mount Vernon, Missouri
Current Conditions -  °F | °C
As of 3:55 PM on Tuesday 25 Nov 2014 (Local Time) from KHFJ Reporting Station
Clear Clear  
Wind Chill: 39°   Ceiling: Unl
Heat Index: 43°   Visibility: 10mi
Dew Point: 21°   Wind: 7mph
Humidity: 42%   Direction: 270°W
Pressure: 30.13"   Gusts: NA
Location:  37.1°N, 93.82°W
Report Text: KHFJ 252155Z AUTO 27006KT 10SM CLR 06/M06 A3013 RMK AO2
Loading
Personal Weather Stations






























Interactive Weather Map New forecast layout! Learn more

10-Day Weather Forecast

Advertisements
Track Severe Weather on mobile